createdAt,value
2023-03-19T00:00:32.114Z,4.15
2023-03-19T00:02:59.639Z,4.55
2023-03-19T00:05:27.233Z,4.20
2023-03-19T00:07:54.481Z,4.85
2023-03-19T00:10:21.852Z,4.55
2023-03-19T00:12:49.159Z,4.70
2023-03-19T00:15:16.637Z,4.47
2023-03-19T00:17:43.974Z,4.68
2023-03-19T00:20:12.752Z,5.22
2023-03-19T00:22:40.379Z,4.65
2023-03-19T00:25:09.889Z,4.20
2023-03-19T00:27:38.246Z,4.15
2023-03-19T00:30:07.735Z,4.18
2023-03-19T00:32:36.640Z,4.30
2023-03-19T00:35:06.442Z,3.97
2023-03-19T00:37:35.317Z,5.03
2023-03-19T00:40:04.528Z,3.85
2023-03-19T00:42:32.898Z,4.65
2023-03-19T00:45:00.358Z,4.55
2023-03-19T00:47:27.808Z,3.95
2023-03-19T00:49:55.751Z,4.60
2023-03-19T00:52:23.081Z,4.53
2023-03-19T00:54:51.117Z,4.80
2023-03-19T00:57:19.733Z,4.45
2023-03-19T00:59:47.286Z,4.38
2023-03-19T01:02:14.633Z,4.50
2023-03-19T01:04:41.998Z,4.38
2023-03-19T01:07:09.770Z,4.70
2023-03-19T01:09:37.034Z,4.90
2023-03-19T01:12:04.933Z,4.45
2023-03-19T01:14:33.402Z,4.65
2023-03-19T01:17:00.954Z,4.43
2023-03-19T01:19:30.149Z,4.55
2023-03-19T01:21:57.873Z,3.90
2023-03-19T01:24:29.011Z,4.40
2023-03-19T01:26:56.422Z,4.72
2023-03-19T01:29:30.432Z,4.40
2023-03-19T01:32:00.943Z,4.45
2023-03-19T01:37:12.832Z,4.85
2023-03-19T01:39:41.868Z,4.18
2023-03-19T01:42:13.608Z,4.72
2023-03-19T01:45:04.348Z,4.15
2023-03-19T01:48:01.467Z,5.53
2023-03-19T01:50:47.294Z,4.20
2023-03-19T01:53:28.716Z,5.00
2023-03-19T01:56:07.395Z,4.88
2023-03-19T01:59:00.430Z,4.47
2023-03-19T02:01:55.102Z,4.53
2023-03-19T02:04:25.725Z,4.93
2023-03-19T02:06:56.382Z,4.63
2023-03-19T02:09:26.175Z,4.95
2023-03-19T02:11:56.532Z,4.95
2023-03-19T02:14:24.214Z,4.47
2023-03-19T02:16:54.011Z,4.75
2023-03-19T02:19:35.736Z,4.93
2023-03-19T02:22:04.634Z,5.10
2023-03-19T02:24:45.547Z,4.70
2023-03-19T02:29:48.973Z,4.97
2023-03-19T02:32:17.035Z,4.55
2023-03-19T02:34:45.209Z,4.72
2023-03-19T02:37:19.092Z,5.40
2023-03-19T02:40:08.334Z,5.10
2023-03-19T02:42:35.780Z,4.63
2023-03-19T02:45:03.674Z,4.72
2023-03-19T02:47:31.002Z,4.53
2023-03-19T02:49:58.325Z,4.63
2023-03-19T02:52:26.581Z,5.10
2023-03-19T02:54:53.859Z,5.40
2023-03-19T02:57:21.187Z,4.85
2023-03-19T02:59:48.457Z,5.47
2023-03-19T03:02:15.784Z,5.20
2023-03-19T03:04:43.557Z,5.35
2023-03-19T03:07:10.956Z,5.22
2023-03-19T03:09:38.285Z,5.00
2023-03-19T03:12:06.205Z,5.07
2023-03-19T03:14:33.441Z,5.03
2023-03-19T03:17:00.879Z,5.20
2023-03-19T03:19:28.117Z,5.28
2023-03-19T03:21:55.378Z,4.97
2023-03-19T03:24:22.646Z,4.93
2023-03-19T03:26:50.015Z,5.45
2023-03-19T03:29:17.390Z,4.90
2023-03-19T03:31:44.782Z,5.25
2023-03-19T03:34:12.155Z,4.53
2023-03-19T03:36:39.430Z,5.03
2023-03-19T03:39:07.039Z,5.13
2023-03-19T03:41:34.399Z,4.90
2023-03-19T03:44:02.881Z,5.38
2023-03-19T03:46:33.408Z,5.43
2023-03-19T03:49:01.489Z,5.30
2023-03-19T03:51:28.929Z,5.20
2023-03-19T03:53:56.393Z,5.22
2023-03-19T03:56:23.678Z,4.80
2023-03-19T03:58:51.295Z,4.97
2023-03-19T04:01:19.667Z,5.70
2023-03-19T04:03:54.481Z,4.95
2023-03-19T04:06:24.342Z,5.25
2023-03-19T04:09:11.988Z,5.30
2023-03-19T04:11:41.414Z,4.60
2023-03-19T04:14:09.101Z,6.05
2023-03-19T04:16:38.778Z,5.30
2023-03-19T04:19:07.709Z,5.32
2023-03-19T04:21:35.263Z,5.30
2023-03-19T04:24:02.663Z,5.10
2023-03-19T04:26:30.106Z,5.10
2023-03-19T04:28:58.550Z,5.88
2023-03-19T04:31:26.239Z,4.93
2023-03-19T04:33:53.645Z,4.75
2023-03-19T04:36:21.110Z,5.25
2023-03-19T04:38:48.720Z,5.38
2023-03-19T04:41:16.479Z,4.95
2023-03-19T04:43:56.779Z,4.95
2023-03-19T04:46:24.742Z,5.10
2023-03-19T04:48:52.278Z,5.35
2023-03-19T04:51:21.439Z,5.05
2023-03-19T04:53:50.767Z,5.07
2023-03-19T04:56:18.859Z,4.97
2023-03-19T04:58:46.757Z,6.20
2023-03-19T05:01:14.119Z,5.07
2023-03-19T05:04:00.272Z,4.80
2023-03-19T05:06:28.275Z,5.22
2023-03-19T05:08:55.812Z,5.25
2023-03-19T05:11:24.083Z,4.88
2023-03-19T05:14:01.240Z,4.82
2023-03-19T05:16:35.699Z,5.65
2023-03-19T05:19:03.272Z,5.18
2023-03-19T05:21:32.729Z,5.45
2023-03-19T05:24:00.558Z,5.57
2023-03-19T05:26:30.273Z,6.22
2023-03-19T05:29:16.042Z,4.85
2023-03-19T05:32:03.270Z,5.80
2023-03-19T05:34:31.678Z,5.03
2023-03-19T05:36:59.201Z,4.95
2023-03-19T05:39:26.506Z,4.82
2023-03-19T05:41:55.502Z,5.65
2023-03-19T05:44:28.218Z,5.40
2023-03-19T05:47:02.832Z,4.72
2023-03-19T05:49:33.828Z,4.95
2023-03-19T05:52:01.178Z,5.20
2023-03-19T05:54:31.324Z,4.90
2023-03-19T05:57:08.358Z,5.10
2023-03-19T05:59:49.904Z,4.80
2023-03-19T06:02:30.268Z,4.50
2023-03-19T06:05:13.340Z,4.68
2023-03-19T06:07:40.884Z,4.88
2023-03-19T06:10:14.881Z,5.32
2023-03-19T06:12:42.408Z,5.45
2023-03-19T06:15:29.850Z,4.88
2023-03-19T06:18:21.476Z,5.22
2023-03-19T06:20:49.233Z,4.50
2023-03-19T06:23:17.799Z,5.95
2023-03-19T06:25:45.713Z,5.00
2023-03-19T06:28:13.742Z,5.00
2023-03-19T06:30:43.786Z,5.30
2023-03-19T06:33:33.685Z,5.45
2023-03-19T06:36:01.679Z,5.45
2023-03-19T06:38:32.081Z,6.07
2023-03-19T06:40:59.397Z,5.22
2023-03-19T06:43:26.812Z,5.00
2023-03-19T06:45:54.178Z,5.50
2023-03-19T06:48:21.584Z,5.47
2023-03-19T06:50:48.958Z,5.55
2023-03-19T06:53:16.870Z,4.70
2023-03-19T06:55:46.916Z,5.10
2023-03-19T06:58:14.175Z,5.38
2023-03-19T07:00:41.514Z,4.88
2023-03-19T07:03:10.095Z,5.00
2023-03-19T07:05:37.386Z,5.35
2023-03-19T07:08:07.376Z,5.50
2023-03-19T07:10:34.785Z,5.15
2023-03-19T07:13:02.128Z,5.40
2023-03-19T07:15:29.415Z,5.15
2023-03-19T07:17:57.482Z,5.30
2023-03-19T07:20:24.749Z,4.75
2023-03-19T07:22:52.331Z,5.47
2023-03-19T07:25:19.970Z,5.18
2023-03-19T07:27:47.394Z,4.85
2023-03-19T07:30:16.039Z,5.13
2023-03-19T07:32:44.003Z,6.47
2023-03-19T07:35:11.653Z,5.47
2023-03-19T07:37:38.899Z,8.10
2023-03-19T07:40:07.444Z,8.30
2023-03-19T07:42:36.546Z,5.93
2023-03-19T07:45:04.883Z,9.88
2023-03-19T07:47:32.721Z,10.05
2023-03-19T07:50:00.728Z,7.30
2023-03-19T07:52:28.142Z,6.45
2023-03-19T07:54:56.175Z,5.82
2023-03-19T07:57:25.573Z,5.65
2023-03-19T07:59:52.929Z,5.35
2023-03-19T08:02:22.915Z,4.95
2023-03-19T08:04:51.358Z,6.15
2023-03-19T08:07:18.676Z,5.22
2023-03-19T08:09:45.924Z,5.03
2023-03-19T08:12:13.588Z,5.95
2023-03-19T08:14:41.384Z,5.53
2023-03-19T08:17:08.825Z,5.22
2023-03-19T08:19:36.233Z,6.25
2023-03-19T08:22:03.610Z,5.95
2023-03-19T08:24:31.275Z,5.65
2023-03-19T08:26:58.572Z,5.10
2023-03-19T08:29:27.183Z,5.47
2023-03-19T08:31:56.306Z,5.22
2023-03-19T08:34:23.729Z,6.05
2023-03-19T08:36:51.048Z,6.07
2023-03-19T08:39:18.370Z,6.40
2023-03-19T08:41:45.634Z,6.10
2023-03-19T08:44:13.169Z,5.80
2023-03-19T08:46:40.543Z,6.47
2023-03-19T08:49:07.908Z,5.88
2023-03-19T08:51:35.435Z,6.55
2023-03-19T08:54:02.881Z,5.30
2023-03-19T08:56:30.333Z,5.88
2023-03-19T08:58:58.049Z,5.80
2023-03-19T09:01:25.512Z,6.22
2023-03-19T09:03:52.766Z,5.57
2023-03-19T09:06:20.167Z,5.80
2023-03-19T09:08:47.433Z,4.60
2023-03-19T09:11:16.800Z,6.57
2023-03-19T09:13:44.143Z,6.10
2023-03-19T09:16:11.412Z,5.90
2023-03-19T09:18:38.777Z,6.00
2023-03-19T09:21:06.310Z,5.97
2023-03-19T09:23:33.789Z,5.40
2023-03-19T09:26:01.149Z,5.93
2023-03-19T09:28:28.430Z,5.30
2023-03-19T09:30:56.132Z,4.88
2023-03-19T09:33:23.519Z,5.40
2023-03-19T09:35:52.947Z,4.70
2023-03-19T09:38:22.032Z,5.20
2023-03-19T09:41:03.151Z,4.78
2023-03-19T09:43:45.661Z,4.65
2023-03-19T09:46:23.107Z,3.93
2023-03-19T09:49:03.880Z,4.78
2023-03-19T09:51:42.062Z,4.18
2023-03-19T09:54:20.494Z,4.93
2023-03-19T09:56:47.801Z,4.40
2023-03-19T09:59:15.039Z,4.13
2023-03-19T10:01:47.392Z,4.45
2023-03-19T10:04:42.622Z,5.05
2023-03-19T10:07:34.643Z,4.20
2023-03-19T10:10:11.312Z,5.00
2023-03-19T10:12:44.669Z,4.63
2023-03-19T10:15:32.626Z,4.80
2023-03-19T10:18:21.898Z,5.50
2023-03-19T10:20:54.930Z,4.93
2023-03-19T10:23:40.692Z,4.32
2023-03-19T10:26:18.354Z,5.25
2023-03-19T10:28:57.674Z,5.10
2023-03-19T10:31:30.457Z,6.07
2023-03-19T10:34:50.538Z,6.20
2023-03-19T10:37:23.814Z,5.88
2023-03-19T10:39:55.602Z,7.00
2023-03-19T10:42:41.631Z,6.20
2023-03-19T10:45:29.104Z,6.05
2023-03-19T10:47:57.963Z,6.00
2023-03-19T10:50:32.858Z,4.82
2023-03-19T10:53:15.504Z,7.18
2023-03-19T10:56:06.379Z,10.77
2023-03-19T10:58:37.345Z,6.57
2023-03-19T11:01:12.089Z,5.70
2023-03-19T11:03:50.624Z,5.38
2023-03-19T11:06:31.283Z,5.25
2023-03-19T11:09:04.666Z,5.13
2023-03-19T11:11:53.669Z,5.60
2023-03-19T11:14:25.882Z,4.47
2023-03-19T11:17:36.605Z,4.47
2023-03-19T11:20:33.642Z,4.30
2023-03-19T11:23:04.337Z,4.18
2023-03-19T11:25:43.587Z,4.30
2023-03-19T11:28:25.956Z,4.32
2023-03-19T11:31:15.910Z,3.83
2023-03-19T11:33:58.577Z,4.95
2023-03-19T11:36:40.782Z,4.72
2023-03-19T11:39:46.040Z,4.65
2023-03-19T11:42:16.471Z,4.35
2023-03-19T11:45:02.324Z,4.50
2023-03-19T11:47:47.709Z,4.30
2023-03-19T11:50:19.398Z,4.88
2023-03-19T11:52:53.370Z,4.80
2023-03-19T11:56:15.398Z,4.43
2023-03-19T11:58:54.306Z,4.32
2023-03-19T12:01:39.162Z,4.75
2023-03-19T12:04:27.531Z,4.57
2023-03-19T12:07:38.826Z,4.45
2023-03-19T12:10:43.483Z,4.55
2023-03-19T12:13:27.108Z,4.85
2023-03-19T12:16:10.976Z,4.28
2023-03-19T12:18:56.035Z,4.65
2023-03-19T12:21:46.901Z,4.43
2023-03-19T12:24:32.973Z,4.40
2023-03-19T12:27:50.046Z,4.80
2023-03-19T12:30:32.496Z,3.80
2023-03-19T12:33:30.328Z,4.40
2023-03-19T12:35:59.284Z,4.40
2023-03-19T12:38:45.348Z,4.53
2023-03-19T12:41:21.669Z,4.47
2023-03-19T12:44:04.665Z,3.95
2023-03-19T12:46:43.885Z,4.38
2023-03-19T12:49:17.814Z,4.13
2023-03-19T12:51:54.852Z,4.43
2023-03-19T12:54:28.873Z,4.47
2023-03-19T12:57:31.000Z,4.30
2023-03-19T13:00:04.962Z,4.75
2023-03-19T13:02:50.608Z,5.28
2023-03-19T13:05:26.744Z,4.80
2023-03-19T13:08:25.494Z,4.82
2023-03-19T13:10:52.889Z,4.03
2023-03-19T13:13:54.399Z,4.63
2023-03-19T13:16:50.918Z,4.47
2023-03-19T13:19:54.095Z,4.45
2023-03-19T13:22:25.861Z,4.53
2023-03-19T13:24:55.287Z,3.95
2023-03-19T13:27:27.701Z,4.45
2023-03-19T13:30:07.463Z,4.15
2023-03-19T13:32:41.407Z,4.05
2023-03-19T13:35:34.209Z,4.28
2023-03-19T13:38:18.849Z,3.33
2023-03-19T13:40:56.605Z,4.20
2023-03-19T13:43:29.953Z,3.85
2023-03-19T13:46:44.826Z,3.28
2023-03-19T13:49:34.078Z,3.85
2023-03-19T13:52:22.816Z,3.63
2023-03-19T13:54:54.122Z,3.78
2023-03-19T13:57:35.526Z,3.50
2023-03-19T14:00:40.994Z,3.50
2023-03-19T14:03:24.205Z,4.07
2023-03-19T14:05:55.153Z,3.67
2023-03-19T14:08:26.197Z,3.80
2023-03-19T14:10:57.332Z,3.85
2023-03-19T14:13:38.545Z,3.80
2023-03-19T14:16:18.580Z,4.00
2023-03-19T14:18:47.501Z,3.83
2023-03-19T14:21:36.020Z,3.78
2023-03-19T14:24:58.386Z,3.67
2023-03-19T14:27:18.706Z,4.25
2023-03-19T14:29:47.729Z,3.92
2023-03-19T14:32:22.192Z,3.97
2023-03-19T14:34:50.249Z,4.05
2023-03-19T14:37:28.776Z,3.40
2023-03-19T14:40:09.388Z,3.55
2023-03-19T14:42:51.915Z,3.70
2023-03-19T14:45:56.609Z,3.73
2023-03-19T14:49:05.793Z,3.42
2023-03-19T14:52:03.601Z,3.15
2023-03-19T14:54:45.010Z,2.80
2023-03-19T14:57:26.863Z,3.53
2023-03-19T14:59:55.629Z,3.50
2023-03-19T15:02:28.165Z,3.28
2023-03-19T15:04:56.853Z,3.10
2023-03-19T15:07:32.584Z,3.60
2023-03-19T15:10:06.455Z,3.85
2023-03-19T15:12:52.585Z,3.10
2023-03-19T15:15:44.413Z,3.70
2023-03-19T15:18:15.512Z,3.72
2023-03-19T15:20:45.636Z,3.58
2023-03-19T15:23:26.722Z,3.47
2023-03-19T15:26:00.295Z,3.75
2023-03-19T15:28:53.811Z,3.13
2023-03-19T15:31:38.358Z,3.08
2023-03-19T15:34:24.351Z,3.55
2023-03-19T15:36:59.128Z,3.50
2023-03-19T15:39:31.128Z,3.67
2023-03-19T15:42:00.920Z,3.40
2023-03-19T15:44:44.706Z,3.00
2023-03-19T15:47:19.686Z,3.33
2023-03-19T15:49:55.530Z,4.05
2023-03-19T15:52:23.971Z,2.70
2023-03-19T15:54:54.535Z,2.90
2023-03-19T15:57:24.426Z,3.10
2023-03-19T15:59:54.173Z,3.22
2023-03-19T16:02:33.518Z,3.42
2023-03-19T16:05:22.476Z,3.22
2023-03-19T16:07:58.667Z,3.33
2023-03-19T16:10:28.716Z,2.97
2023-03-19T16:12:56.140Z,3.15
2023-03-19T16:15:47.261Z,3.08
2023-03-19T16:18:18.023Z,2.90
2023-03-19T16:21:08.838Z,3.00
2023-03-19T16:23:41.078Z,2.72
2023-03-19T16:26:17.284Z,2.87
2023-03-19T16:28:49.246Z,3.20
2023-03-19T16:31:22.620Z,3.30
2023-03-19T16:33:52.252Z,3.75
2023-03-19T16:36:20.400Z,2.85
2023-03-19T16:39:18.265Z,3.13
2023-03-19T16:42:14.142Z,2.88
2023-03-19T16:44:44.250Z,3.75
2023-03-19T16:47:13.586Z,3.67
2023-03-19T16:49:40.993Z,3.67
2023-03-19T16:52:15.975Z,4.15
2023-03-19T16:54:43.914Z,3.60
2023-03-19T16:57:16.411Z,3.65
2023-03-19T16:59:44.727Z,4.07
2023-03-19T17:02:17.701Z,3.92
2023-03-19T17:04:46.123Z,3.55
2023-03-19T17:07:13.564Z,4.38
2023-03-19T17:09:40.920Z,3.85
2023-03-19T17:12:15.441Z,5.43
2023-03-19T17:14:43.489Z,5.00
2023-03-19T17:17:18.678Z,4.63
2023-03-19T17:19:47.106Z,4.22
2023-03-19T17:22:14.601Z,3.90
2023-03-19T17:24:42.286Z,4.55
2023-03-19T17:27:10.720Z,4.07
2023-03-19T17:29:38.040Z,4.20
2023-03-19T17:32:14.911Z,3.97
2023-03-19T17:34:42.467Z,4.00
2023-03-19T17:37:14.631Z,3.90
2023-03-19T17:39:43.053Z,4.28
2023-03-19T17:42:33.870Z,4.57
2023-03-19T17:45:01.287Z,4.43
2023-03-19T17:47:28.665Z,5.43
2023-03-19T17:49:56.984Z,5.05
2023-03-19T17:52:24.244Z,4.50
2023-03-19T17:54:51.532Z,3.88
2023-03-19T17:57:18.815Z,4.10
2023-03-19T17:59:46.101Z,3.75
2023-03-19T18:02:32.909Z,4.18
2023-03-19T18:05:00.358Z,3.90
2023-03-19T18:07:27.860Z,3.85
2023-03-19T18:09:55.312Z,4.13
2023-03-19T18:12:22.635Z,3.90
2023-03-19T18:14:49.874Z,3.88
2023-03-19T18:17:18.530Z,4.25
2023-03-19T18:19:47.632Z,4.32
2023-03-19T18:22:17.406Z,4.07
2023-03-19T18:24:45.430Z,4.20
2023-03-19T18:27:13.610Z,3.97
2023-03-19T18:29:40.828Z,3.90
2023-03-19T18:32:16.061Z,3.85
2023-03-19T18:34:43.415Z,4.10
2023-03-19T18:37:17.068Z,3.95
2023-03-19T18:39:44.682Z,4.82
2023-03-19T18:42:13.652Z,4.03
2023-03-19T18:44:40.997Z,4.03
2023-03-19T18:47:15.842Z,4.07
2023-03-19T18:49:44.720Z,4.43
2023-03-19T18:52:19.069Z,3.83
2023-03-19T18:54:46.919Z,3.58
2023-03-19T18:57:15.780Z,4.38
2023-03-19T18:59:43.282Z,3.95
2023-03-19T19:02:33.334Z,4.03
2023-03-19T19:05:01.596Z,4.45
2023-03-19T19:07:28.967Z,4.53
2023-03-19T19:09:56.259Z,3.92
2023-03-19T19:12:26.135Z,4.25
2023-03-19T19:14:53.557Z,4.25
2023-03-19T19:17:24.585Z,4.93
2023-03-19T19:19:51.804Z,5.05
2023-03-19T19:22:20.257Z,4.32
2023-03-19T19:24:47.611Z,4.72
2023-03-19T19:27:20.307Z,4.60
2023-03-19T19:29:48.973Z,4.95
2023-03-19T19:32:24.632Z,4.03
2023-03-19T19:34:53.125Z,4.90
2023-03-19T19:37:23.242Z,4.82
2023-03-19T19:39:51.824Z,5.40
2023-03-19T19:42:21.440Z,5.18
2023-03-19T19:44:54.879Z,5.03
2023-03-19T19:47:22.310Z,4.55
2023-03-19T19:49:49.646Z,5.32
2023-03-19T19:52:18.854Z,4.47
2023-03-19T19:54:46.925Z,5.50
2023-03-19T19:57:21.379Z,5.00
2023-03-19T19:59:50.397Z,4.72
2023-03-19T20:02:21.650Z,4.72
2023-03-19T20:04:49.142Z,4.82
2023-03-19T20:07:16.676Z,4.70
2023-03-19T20:09:44.100Z,4.97
2023-03-19T20:12:23.706Z,4.88
2023-03-19T20:14:51.201Z,5.10
2023-03-19T20:17:21.193Z,4.97
2023-03-19T20:19:49.095Z,5.28
2023-03-19T20:22:16.927Z,4.80
2023-03-19T20:24:45.114Z,5.10
2023-03-19T20:27:28.796Z,4.53
2023-03-19T20:29:56.180Z,4.78
2023-03-19T20:32:34.688Z,4.80
2023-03-19T20:35:02.407Z,4.90
2023-03-19T20:37:30.730Z,5.28
2023-03-19T20:39:58.101Z,4.97
2023-03-19T20:42:27.048Z,5.00
2023-03-19T20:44:58.044Z,4.47
2023-03-19T20:47:26.109Z,4.63
2023-03-19T20:49:54.051Z,5.00
2023-03-19T20:52:21.576Z,4.80
2023-03-19T20:54:49.065Z,4.88
2023-03-19T20:57:19.675Z,5.18
2023-03-19T20:59:47.678Z,4.78
2023-03-19T21:02:17.225Z,4.63
2023-03-19T21:04:45.828Z,4.70
2023-03-19T21:07:34.543Z,4.72
2023-03-19T21:10:29.070Z,4.70
2023-03-19T21:12:57.206Z,4.50
2023-03-19T21:15:24.799Z,4.80
2023-03-19T21:17:53.233Z,5.00
2023-03-19T21:20:24.759Z,4.45
2023-03-19T21:23:14.507Z,4.55
2023-03-19T21:25:43.672Z,4.60
2023-03-19T21:28:23.954Z,5.25
2023-03-19T21:30:52.405Z,4.97
2023-03-19T21:33:27.057Z,4.53
2023-03-19T21:35:56.140Z,4.85
2023-03-19T21:38:23.988Z,5.03
2023-03-19T21:40:56.821Z,4.68
2023-03-19T21:43:33.336Z,4.13
2023-03-19T21:46:14.004Z,4.90
2023-03-19T21:48:49.041Z,4.97
2023-03-19T21:51:16.642Z,4.68
2023-03-19T21:53:45.590Z,4.10
2023-03-19T21:56:23.530Z,3.88
2023-03-19T21:58:52.800Z,4.40
2023-03-19T22:01:23.852Z,5.03
2023-03-19T22:03:53.429Z,4.80
2023-03-19T22:06:22.119Z,4.43
2023-03-19T22:08:51.141Z,4.50
2023-03-19T22:11:24.442Z,5.15
2023-03-19T22:13:52.549Z,5.15
2023-03-19T22:16:23.140Z,5.15
2023-03-19T22:18:51.664Z,4.90
2023-03-19T22:21:21.788Z,5.18
2023-03-19T22:23:50.986Z,4.50
2023-03-19T22:26:26.435Z,5.00
2023-03-19T22:28:54.961Z,4.85
2023-03-19T22:31:22.593Z,4.32
2023-03-19T22:33:50.035Z,4.93
2023-03-19T22:36:17.670Z,4.28
2023-03-19T22:38:45.197Z,5.95
2023-03-19T22:41:23.778Z,4.80
2023-03-19T22:43:57.741Z,4.75
2023-03-19T22:46:25.701Z,5.82
2023-03-19T22:48:53.274Z,5.28
2023-03-19T22:51:23.902Z,5.45
2023-03-19T22:53:51.774Z,4.85
2023-03-19T22:56:20.076Z,4.72
2023-03-19T22:58:47.806Z,5.03
2023-03-19T23:01:21.244Z,5.07
2023-03-19T23:03:50.029Z,5.13
2023-03-19T23:06:30.287Z,4.82
2023-03-19T23:08:58.418Z,6.18
2023-03-19T23:11:25.677Z,5.28
2023-03-19T23:13:56.001Z,5.13
2023-03-19T23:16:25.279Z,5.40
2023-03-19T23:21:21.421Z,5.45
2023-03-19T23:23:49.729Z,4.88
2023-03-19T23:26:23.291Z,4.72
2023-03-19T23:28:50.670Z,5.80
2023-03-19T23:31:18.866Z,5.05
2023-03-19T23:33:46.311Z,5.35
2023-03-19T23:36:13.655Z,4.97
2023-03-19T23:38:41.607Z,5.47
2023-03-19T23:41:22.812Z,6.03
2023-03-19T23:43:51.613Z,5.05
2023-03-19T23:46:20.264Z,5.38
2023-03-19T23:48:47.589Z,5.55
2023-03-19T23:51:16.495Z,5.90
2023-03-19T23:53:44.193Z,5.15
2023-03-19T23:56:20.631Z,6.13
2023-03-19T23:58:49.917Z,5.13
